Time;durP1;ratioP1;P1;durP2;ratioP2;P2;SDS_P1;SDS_P2;PMS_P1;PMS_P2;Temp;Humidity;BMP_temperature;BMP_pressure;BME280_temperature;BME280_humidity;BME280_pressure;Samples;Min_cycle;Max_cycle;Signal;HPM_P1;HPM_P2
2023/12/13 00:01:22;;;;;;;6.87;5.23;;;;;;;6.77;100.00;99942.34;6165501;28;20237;-75
2023/12/13 00:04:43;;;;;;;8.67;6.73;;;;;;;6.89;100.00;99940.41;6173707;28;20506;-76
2023/12/13 00:08:04;;;;;;;6.40;5.80;;;;;;;6.93;100.00;99936.44;6173900;28;20242;-78
2023/12/13 00:11:25;;;;;;;8.10;5.47;;;;;;;6.92;100.00;99937.47;6163839;28;20240;-76
2023/12/13 00:14:48;;;;;;;6.80;6.07;;;;;;;6.86;100.00;99929.97;6173510;28;22372;-77
2023/12/13 00:18:09;;;;;;;8.40;7.37;;;;;;;6.86;100.00;99929.97;6166731;28;20237;-76
2023/12/13 00:21:30;;;;;;;6.70;5.60;;;;;;;6.89;100.00;99929.69;6184449;28;20238;-76
2023/12/13 00:24:50;;;;;;;7.40;5.60;;;;;;;6.81;100.00;99922.34;6182781;28;20234;-78
2023/12/13 00:28:11;;;;;;;7.73;5.87;;;;;;;6.79;100.00;99921.63;6166931;28;20721;-75
2023/12/13 00:31:34;;;;;;;9.80;7.73;;;;;;;6.84;100.00;99915.88;6174488;28;20233;-76
2023/12/13 00:34:54;;;;;;;9.07;6.77;;;;;;;6.68;100.00;99910.16;6186548;28;20320;-77
2023/12/13 00:38:15;;;;;;;9.07;6.70;;;;;;;6.68;100.00;99902.97;6187072;28;20260;-76
2023/12/13 00:41:36;;;;;;;7.23;6.23;;;;;;;6.69;100.00;99898.47;6189265;28;20237;-78
2023/12/13 00:44:57;;;;;;;6.13;5.50;;;;;;;6.55;100.00;99898.84;6181454;28;20257;-76
2023/12/13 00:48:19;;;;;;;6.63;5.37;;;;;;;6.55;100.00;99888.13;6182722;28;20229;-77
2023/12/13 00:51:40;;;;;;;8.83;6.47;;;;;;;6.67;100.00;99885.22;6175127;28;20238;-78
2023/12/13 00:55:04;;;;;;;5.53;5.03;;;;;;;6.67;100.00;99881.69;6188187;28;20237;-77
2023/12/13 00:58:25;;;;;;;7.53;5.73;;;;;;;6.59;100.00;99882.38;6188969;28;20249;-77
2023/12/13 01:01:46;;;;;;;6.83;6.13;;;;;;;6.63;100.00;99875.75;6178111;28;20242;-77
2023/12/13 01:05:09;;;;;;;5.63;5.13;;;;;;;6.55;100.00;99878.25;6177613;28;20320;-78
2023/12/13 01:08:30;;;;;;;6.17;5.57;;;;;;;6.63;100.00;99883.81;6187719;28;20233;-76
2023/12/13 01:11:51;;;;;;;5.10;4.63;;;;;;;6.52;100.00;99870.50;6188987;28;20249;-77
2023/12/13 01:15:12;;;;;;;5.70;5.20;;;;;;;6.34;100.00;99866.78;6178463;28;20241;-77
2023/12/13 01:18:33;;;;;;;5.43;4.60;;;;;;;6.44;100.00;99868.50;6189947;28;20331;-78
2023/12/13 01:21:55;;;;;;;6.13;5.53;;;;;;;6.49;100.00;99865.41;6189916;28;20241;-78
2023/12/13 01:25:16;;;;;;;4.70;4.30;;;;;;;6.47;100.00;99878.09;6189282;28;20259;-77
2023/12/13 01:28:37;;;;;;;3.57;3.27;;;;;;;6.49;100.00;99876.13;6175574;28;20574;-78
2023/12/13 01:31:59;;;;;;;5.57;4.57;;;;;;;6.32;100.00;99884.78;6187075;28;20233;-77
2023/12/13 01:35:19;;;;;;;4.70;3.80;;;;;;;6.38;100.00;99879.72;6177229;28;20229;-77
2023/12/13 01:38:42;;;;;;;4.17;3.80;;;;;;;6.41;100.00;99882.16;6189141;28;20233;-76
2023/12/13 01:42:03;;;;;;;5.07;4.60;;;;;;;6.49;100.00;99886.00;6187342;28;20513;-77
2023/12/13 01:45:24;;;;;;;3.37;3.07;;;;;;;6.58;100.00;99883.34;6176569;28;20229;-78
2023/12/13 01:48:46;;;;;;;2.93;2.73;;;;;;;6.40;100.00;99882.28;6182575;28;20238;-77
2023/12/13 01:52:07;;;;;;;3.67;3.37;;;;;;;6.39;100.00;99870.72;6186233;28;20555;-78
2023/12/13 01:55:30;;;;;;;3.40;3.10;;;;;;;6.28;100.00;99870.81;6192526;28;20236;-77
2023/12/13 01:58:51;;;;;;;4.43;3.80;;;;;;;6.37;100.00;99874.53;6185187;28;20253;-78
2023/12/13 02:02:13;;;;;;;4.63;3.67;;;;;;;6.43;100.00;99848.06;6189345;28;20336;-77
2023/12/13 02:05:36;;;;;;;2.60;2.40;;;;;;;6.37;100.00;99850.44;6188225;28;20238;-77
2023/12/13 02:08:58;;;;;;;2.80;2.50;;;;;;;6.42;100.00;99846.34;6183397;28;20624;-77
2023/12/13 02:12:21;;;;;;;2.87;2.60;;;;;;;6.37;100.00;99831.69;6161944;28;20233;-78
2023/12/13 02:15:43;;;;;;;2.50;2.30;;;;;;;6.31;100.00;99841.13;6184470;28;20640;-78
2023/12/13 02:19:04;;;;;;;2.47;2.27;;;;;;;6.25;100.00;99843.50;6176957;28;20328;-78
2023/12/13 02:22:26;;;;;;;3.37;3.00;;;;;;;6.40;100.00;99836.78;6182828;28;20230;-77
2023/12/13 02:25:53;;;;;;;2.43;2.30;;;;;;;6.35;100.00;99839.88;6174732;28;20229;-77
2023/12/13 02:29:15;;;;;;;2.63;2.43;;;;;;;6.32;100.00;99841.97;6181890;28;20230;-78
2023/12/13 02:32:36;;;;;;;2.93;2.13;;;;;;;6.41;100.00;99849.19;6183043;28;21396;-79
2023/12/13 02:35:59;;;;;;;2.37;2.17;;;;;;;6.27;100.00;99850.41;6185094;28;20230;-77
2023/12/13 02:39:22;;;;;;;2.60;2.40;;;;;;;6.26;100.00;99851.38;6185557;28;20242;-77
2023/12/13 02:42:43;;;;;;;2.67;2.47;;;;;;;6.31;100.00;99854.50;6178886;28;20772;-76
2023/12/13 02:46:04;;;;;;;2.00;1.90;;;;;;;6.30;100.00;99852.78;6165333;28;20226;-76
2023/12/13 02:49:26;;;;;;;2.77;2.57;;;;;;;6.24;100.00;99847.97;6167807;28;20237;-76
2023/12/13 02:52:47;;;;;;;2.90;2.70;;;;;;;6.28;100.00;99853.91;6187696;28;20257;-76
2023/12/13 02:56:10;;;;;;;3.07;2.87;;;;;;;6.27;100.00;99862.94;6184871;28;20671;-76
2023/12/13 02:59:31;;;;;;;2.97;2.67;;;;;;;6.28;100.00;99857.44;6183856;28;20245;-75
2023/12/13 03:02:52;;;;;;;2.10;2.00;;;;;;;6.27;100.00;99855.75;6182857;28;20221;-75
2023/12/13 03:06:13;;;;;;;2.37;2.17;;;;;;;6.27;100.00;99865.59;6177112;28;20245;-75
2023/12/13 03:09:34;;;;;;;3.27;2.33;;;;;;;6.39;100.00;99851.13;6181999;28;20238;-76
2023/12/13 03:12:56;;;;;;;2.47;2.27;;;;;;;6.38;100.00;99854.81;6182797;28;20252;-75
2023/12/13 03:16:17;;;;;;;2.60;2.40;;;;;;;6.33;100.00;99847.19;6183929;28;20310;-75
2023/12/13 03:19:38;;;;;;;2.27;2.10;;;;;;;6.21;100.00;99845.59;6180261;28;20245;-76
2023/12/13 03:22:59;;;;;;;2.17;2.07;;;;;;;6.30;100.00;99847.44;6181586;28;20237;-76
2023/12/13 03:26:20;;;;;;;2.63;2.33;;;;;;;6.14;100.00;99851.59;6175006;28;20249;-76
2023/12/13 03:29:42;;;;;;;2.00;1.80;;;;;;;6.27;100.00;99853.09;6168217;28;20307;-76
2023/12/13 03:33:04;;;;;;;3.70;2.33;;;;;;;6.34;100.00;99851.53;6169948;28;20731;-75
2023/12/13 03:36:25;;;;;;;2.60;2.40;;;;;;;6.35;100.00;99855.94;6184717;28;20244;-75
2023/12/13 03:39:45;;;;;;;2.57;2.37;;;;;;;6.32;100.00;99848.16;6186527;28;20241;-75
2023/12/13 03:43:07;;;;;;;2.27;2.07;;;;;;;6.21;100.00;99844.72;6186297;28;20229;-76
2023/12/13 03:46:29;;;;;;;2.97;2.67;;;;;;;6.21;100.00;99852.75;6174161;28;20317;-76
2023/12/13 03:49:50;;;;;;;2.03;1.63;;;;;;;6.14;100.00;99839.06;6177609;28;20257;-75
2023/12/13 03:53:11;;;;;;;2.60;2.20;;;;;;;6.20;100.00;99837.69;6184464;28;20241;-75
2023/12/13 03:56:32;;;;;;;2.23;2.07;;;;;;;6.23;100.00;99840.09;6184044;28;20237;-75
2023/12/13 03:59:53;;;;;;;3.23;2.60;;;;;;;6.27;100.00;99833.50;6186102;28;20356;-77
2023/12/13 04:03:15;;;;;;;1.33;1.23;;;;;;;6.19;100.00;99844.88;6183066;28;20317;-76
2023/12/13 04:06:36;;;;;;;2.20;1.77;;;;;;;6.26;100.00;99829.97;6189389;28;20244;-77
2023/12/13 04:09:58;;;;;;;1.60;1.50;;;;;;;6.11;100.00;99842.00;6186775;28;21402;-77
2023/12/13 04:13:19;;;;;;;1.80;1.70;;;;;;;6.14;100.00;99831.03;6153423;28;20525;-77
2023/12/13 04:16:39;;;;;;;1.70;1.60;;;;;;;6.27;100.00;99823.66;6184740;28;20253;-77
2023/12/13 04:20:02;;;;;;;1.97;1.87;;;;;;;6.25;100.00;99828.28;6186914;28;20241;-77
2023/12/13 04:23:24;;;;;;;1.47;1.37;;;;;;;6.24;100.00;99823.91;6177070;28;20680;-76
2023/12/13 04:26:45;;;;;;;1.80;1.67;;;;;;;6.19;100.00;99828.81;6176669;28;20237;-76
2023/12/13 04:30:08;;;;;;;1.40;1.30;;;;;;;6.13;100.00;99825.84;6186598;28;20746;-76
2023/12/13 04:33:31;;;;;;;2.90;2.17;;;;;;;6.11;100.00;99827.81;6184285;28;20234;-76
2023/12/13 04:36:53;;;;;;;3.60;3.23;;;;;;;6.16;100.00;99830.91;6164728;28;20832;-76
2023/12/13 04:40:14;;;;;;;2.70;2.50;;;;;;;6.16;100.00;99826.41;6186594;28;20601;-76
2023/12/13 04:43:35;;;;;;;2.27;2.10;;;;;;;6.15;100.00;99832.72;6183614;28;20261;-76
2023/12/13 04:46:56;;;;;;;1.97;1.87;;;;;;;6.16;100.00;99830.91;6185818;28;21146;-77
2023/12/13 04:50:16;;;;;;;1.67;1.57;;;;;;;6.05;100.00;99831.00;6180033;28;20233;-75
2023/12/13 04:53:39;;;;;;;2.10;2.00;;;;;;;6.12;100.00;99837.50;6183312;28;20229;-76
2023/12/13 04:57:00;;;;;;;3.63;2.77;;;;;;;6.30;100.00;99827.88;6182393;28;20234;-76
2023/12/13 05:00:21;;;;;;;2.90;2.70;;;;;;;6.37;100.00;99829.88;6179276;28;20249;-76
2023/12/13 05:03:42;;;;;;;3.93;3.07;;;;;;;6.30;100.00;99836.75;6176845;28;20233;-77
2023/12/13 05:07:02;;;;;;;2.40;2.20;;;;;;;6.39;100.00;99838.63;6166637;28;20309;-77
2023/12/13 05:10:25;;;;;;;2.00;1.80;;;;;;;6.34;100.00;99829.31;6181834;28;20238;-75
2023/12/13 05:13:46;;;;;;;4.90;4.27;;;;;;;6.29;100.00;99823.50;6182074;28;20233;-76
2023/12/13 05:17:07;;;;;;;3.90;3.60;;;;;;;6.21;100.00;99828.69;6164441;28;20237;-77
2023/12/13 05:20:28;;;;;;;2.87;2.20;;;;;;;6.18;100.00;99829.78;6168171;28;21358;-77
2023/12/13 05:23:49;;;;;;;2.40;2.20;;;;;;;6.00;100.00;99834.09;6186153;28;20324;-76
2023/12/13 05:27:11;;;;;;;5.33;2.60;;;;;;;6.13;100.00;99823.97;6189334;28;20233;-76
2023/12/13 05:30:32;;;;;;;3.33;2.70;;;;;;;5.99;100.00;99832.38;6166454;28;20864;-77
2023/12/13 05:33:53;;;;;;;2.40;2.20;;;;;;;6.03;100.00;99841.00;6181354;28;20226;-77
2023/12/13 05:37:14;;;;;;;2.60;2.40;;;;;;;5.93;100.00;99837.41;6172698;28;20692;-78
2023/12/13 05:40:35;;;;;;;7.23;5.70;;;;;;;6.08;100.00;99833.41;6187007;28;20316;-76
2023/12/13 05:43:57;;;;;;;2.70;2.50;;;;;;;6.06;100.00;99840.72;6186805;28;20237;-76
2023/12/13 05:47:18;;;;;;;3.37;3.07;;;;;;;6.03;100.00;99851.69;6188490;28;20577;-77
2023/12/13 05:50:39;;;;;;;3.27;3.07;;;;;;;6.11;100.00;99846.53;6190429;28;20240;-78
2023/12/13 05:54:00;;;;;;;2.80;2.53;;;;;;;6.03;100.00;99855.19;6188009;28;20631;-77
2023/12/13 05:57:21;;;;;;;3.20;3.00;;;;;;;6.04;100.00;99856.91;6184111;28;20257;-77
2023/12/13 06:00:43;;;;;;;3.60;3.30;;;;;;;6.08;100.00;99861.00;6183008;28;20746;-77
2023/12/13 06:04:05;;;;;;;3.37;2.60;;;;;;;6.01;100.00;99856.31;6185280;28;20877;-77
2023/12/13 06:07:26;;;;;;;3.80;3.07;;;;;;;6.10;100.00;99851.03;6178307;28;20325;-77
2023/12/13 06:10:47;;;;;;;3.47;3.17;;;;;;;6.00;100.00;99855.47;6187151;28;20237;-75
2023/12/13 06:14:07;;;;;;;3.97;3.63;;;;;;;6.03;100.00;99849.03;6181287;28;20237;-75
2023/12/13 06:17:30;;;;;;;3.00;2.70;;;;;;;6.00;100.00;99855.47;6180174;28;20249;-76
2023/12/13 06:20:51;;;;;;;6.20;2.83;;;;;;;6.02;100.00;99855.34;6176203;28;20230;-76
2023/12/13 06:24:12;;;;;;;4.53;3.60;;;;;;;6.13;100.00;99856.09;6183200;28;20226;-77
2023/12/13 06:27:34;;;;;;;4.33;3.93;;;;;;;6.14;100.00;99859.63;6179118;28;20794;-77
2023/12/13 06:30:55;;;;;;;4.50;3.60;;;;;;;6.07;100.00;99845.09;6172958;28;20253;-78
2023/12/13 06:34:17;;;;;;;3.47;3.17;;;;;;;5.96;100.00;99854.06;6185717;28;20238;-77
2023/12/13 06:37:38;;;;;;;3.87;3.57;;;;;;;6.07;100.00;99850.44;6164596;28;20260;-78
2023/12/13 06:40:59;;;;;;;3.87;3.57;;;;;;;6.16;100.00;99853.16;6177899;28;20230;-74
2023/12/13 06:44:21;;;;;;;10.23;3.20;;;;;;;6.04;100.00;99854.22;6173669;28;20237;-73
2023/12/13 06:47:42;;;;;;;5.43;3.67;;;;;;;5.97;100.00;99855.72;6169123;28;21365;-76
2023/12/13 06:51:04;;;;;;;3.50;3.20;;;;;;;6.02;100.00;99863.38;6172202;28;20233;-72
2023/12/13 06:54:25;;;;;;;3.70;3.37;;;;;;;5.93;100.00;99864.16;6177910;28;20506;-73
2023/12/13 06:57:46;;;;;;;3.73;3.43;;;;;;;5.92;100.00;99865.13;6172702;28;20234;-72
2023/12/13 07:01:08;;;;;;;4.60;4.10;;;;;;;5.90;100.00;99872.44;6162792;28;20526;-74
2023/12/13 07:04:31;;;;;;;4.67;4.13;;;;;;;5.82;100.00;99864.19;6180916;28;20230;-73
2023/12/13 07:07:53;;;;;;;4.43;3.43;;;;;;;5.90;100.00;99870.63;6176984;28;20265;-73
2023/12/13 07:11:14;;;;;;;3.73;3.30;;;;;;;5.84;100.00;99868.44;6182977;28;20233;-75
2023/12/13 07:14:35;;;;;;;4.40;3.80;;;;;;;5.89;100.00;99870.72;6182749;28;20242;-74
2023/12/13 07:17:56;;;;;;;3.83;3.53;;;;;;;5.87;100.00;99870.88;6171622;28;20516;-73
2023/12/13 07:21:17;;;;;;;5.03;3.73;;;;;;;5.93;100.00;99873.03;6183059;28;20241;-74
2023/12/13 07:24:39;;;;;;;3.90;3.60;;;;;;;5.90;100.00;99880.47;6173631;28;20249;-74
2023/12/13 07:28:00;;;;;;;4.77;2.97;;;;;;;5.79;100.00;99876.00;6185953;28;20241;-74
2023/12/13 07:31:21;;;;;;;4.07;2.93;;;;;;;5.78;100.00;99887.66;6183229;28;20238;-73
2023/12/13 07:34:44;;;;;;;5.30;4.87;;;;;;;5.93;100.00;99894.41;6181678;28;20234;-74
2023/12/13 07:38:05;;;;;;;3.77;2.43;;;;;;;5.94;100.00;99888.09;6182568;28;20571;-74
2023/12/13 07:41:28;;;;;;;3.10;2.90;;;;;;;5.87;100.00;99889.59;6168353;28;20295;-73
2023/12/13 07:44:49;;;;;;;4.53;4.13;;;;;;;5.71;100.00;99894.53;6186243;28;20707;-74
2023/12/13 07:48:10;;;;;;;3.70;3.27;;;;;;;5.88;100.00;99899.34;6182002;28;20229;-77
2023/12/13 07:51:31;;;;;;;3.83;3.00;;;;;;;5.91;100.00;99901.72;6183448;28;20230;-77
2023/12/13 07:54:52;;;;;;;4.60;3.10;;;;;;;5.94;100.00;99909.50;6184789;28;21415;-73
2023/12/13 07:58:17;;;;;;;3.80;3.40;;;;;;;5.93;100.00;99909.59;6163830;28;20237;-73
2023/12/13 08:01:38;;;;;;;4.10;3.80;;;;;;;5.79;100.00;99915.25;6182388;28;20242;-76
2023/12/13 08:04:59;;;;;;;4.80;3.53;;;;;;;5.96;100.00;99910.22;6177670;28;20233;-76
2023/12/13 08:08:20;;;;;;;3.63;3.33;;;;;;;5.92;100.00;99916.81;6153119;28;20249;-77
2023/12/13 08:11:43;;;;;;;3.37;2.70;;;;;;;5.87;100.00;99913.66;6182336;28;20237;-74
2023/12/13 08:15:06;;;;;;;5.13;3.57;;;;;;;5.81;100.00;99914.16;6178210;28;20560;-73
2023/12/13 08:18:27;;;;;;;4.10;3.40;;;;;;;5.83;100.00;99912.19;6179109;28;20609;-75
2023/12/13 08:21:48;;;;;;;3.10;2.60;;;;;;;5.81;100.00;99916.81;6184443;28;20233;-79
2023/12/13 08:25:10;;;;;;;4.17;3.77;;;;;;;5.77;100.00;99911.88;6172279;28;20237;-74
2023/12/13 08:28:31;;;;;;;3.67;3.37;;;;;;;5.83;100.00;99912.19;6181978;28;20236;-75
2023/12/13 08:31:53;;;;;;;4.33;3.70;;;;;;;5.71;100.00;99921.25;6180855;28;20267;-79
2023/12/13 08:35:14;;;;;;;3.63;3.30;;;;;;;5.76;100.00;99920.88;6152471;28;20230;-76
2023/12/13 08:38:35;;;;;;;2.77;2.57;;;;;;;5.87;100.00;99924.38;6184203;28;20642;-73
2023/12/13 08:41:56;;;;;;;3.50;3.20;;;;;;;5.82;100.00;99931.06;6186327;28;20248;-74
2023/12/13 08:45:17;;;;;;;4.27;3.97;;;;;;;5.92;100.00;99935.53;6185847;28;20312;-77
2023/12/13 08:48:39;;;;;;;3.53;3.23;;;;;;;5.86;100.00;99929.84;6185201;28;20241;-72
2023/12/13 08:52:00;;;;;;;7.50;3.57;;;;;;;5.85;100.00;99942.38;6181299;28;20241;-74
2023/12/13 08:55:21;;;;;;;2.27;2.07;;;;;;;5.94;100.00;99936.25;6184542;28;20611;-75
2023/12/13 08:58:42;;;;;;;3.20;2.90;;;;;;;5.90;100.00;99936.63;6184237;28;20233;-73
2023/12/13 09:02:03;;;;;;;4.00;3.40;;;;;;;5.93;100.00;99931.00;6182704;28;20233;-74
2023/12/13 09:05:26;;;;;;;3.37;2.97;;;;;;;5.93;100.00;99942.56;6187375;28;20237;-80
2023/12/13 09:08:47;;;;;;;5.87;5.20;;;;;;;6.03;100.00;99940.78;6174795;28;20233;-74
2023/12/13 09:12:08;;;;;;;4.77;4.37;;;;;;;6.05;100.00;99948.72;6184037;28;20706;-74
2023/12/13 09:15:29;;;;;;;4.20;3.33;;;;;;;5.88;100.00;99946.63;6170247;28;21318;-75
2023/12/13 09:18:50;;;;;;;2.90;2.70;;;;;;;6.01;100.00;99953.47;6189738;28;20234;-75
2023/12/13 09:22:13;;;;;;;3.33;3.13;;;;;;;5.82;100.00;99958.63;6188083;28;20245;-74
2023/12/13 09:25:34;;;;;;;3.83;3.60;;;;;;;5.95;100.00;99959.31;6190001;28;20230;-74
2023/12/13 09:28:56;;;;;;;5.83;4.07;;;;;;;5.98;100.00;99958.22;6190485;28;20261;-75
2023/12/13 09:32:17;;;;;;;3.70;3.23;;;;;;;5.85;100.00;99961.09;6186026;28;20245;-75
2023/12/13 09:35:38;;;;;;;3.23;2.93;;;;;;;5.90;100.00;99974.06;6190106;28;20226;-74
2023/12/13 09:39:00;;;;;;;5.33;3.07;;;;;;;6.01;100.00;99969.50;6182332;28;20225;-75
2023/12/13 09:42:21;;;;;;;3.23;2.93;;;;;;;5.93;100.00;99971.97;6186777;28;20539;-75
2023/12/13 09:45:45;;;;;;;4.17;2.93;;;;;;;5.87;100.00;99982.34;6188430;28;20328;-75
2023/12/13 09:49:06;;;;;;;2.93;2.70;;;;;;;6.00;100.00;99980.34;6182428;28;20278;-74
2023/12/13 09:52:27;;;;;;;3.93;2.73;;;;;;;5.93;100.00;99971.13;6185793;28;20237;-75
2023/12/13 09:55:49;;;;;;;5.53;3.17;;;;;;;6.05;100.00;99975.47;6174236;28;20802;-75
2023/12/13 09:59:11;;;;;;;2.60;2.40;;;;;;;6.03;100.00;99974.75;6170764;28;20230;-74
2023/12/13 10:02:31;;;;;;;3.07;2.83;;;;;;;6.10;100.00;99978.59;6183520;28;20237;-74
2023/12/13 10:05:58;;;;;;;3.43;3.03;;;;;;;6.20;100.00;99980.34;6186031;28;20237;-75
2023/12/13 10:09:19;;;;;;;3.37;3.17;;;;;;;6.64;100.00;99986.38;6177746;28;20840;-75
2023/12/13 10:12:41;;;;;;;4.00;3.67;;;;;;;6.52;100.00;99984.78;6187403;28;20287;-74
2023/12/13 10:16:10;;;;;;;2.77;2.53;;;;;;;6.35;100.00;99979.03;6186295;28;20717;-74
2023/12/13 10:19:32;;;;;;;4.90;4.50;;;;;;;6.37;100.00;99985.13;6180608;28;20344;-75
2023/12/13 10:22:53;;;;;;;3.80;3.50;;;;;;;6.41;100.00;99978.50;6187565;28;20312;-75
2023/12/13 10:26:14;;;;;;;3.13;2.93;;;;;;;6.21;100.00;99982.06;6190224;28;20230;-75
2023/12/13 10:29:37;;;;;;;3.27;2.97;;;;;;;6.03;100.00;99988.13;6185451;28;20332;-75
2023/12/13 10:32:58;;;;;;;2.33;2.17;;;;;;;6.01;100.00;99992.72;6190019;28;20918;-75
2023/12/13 10:36:19;;;;;;;2.57;2.37;;;;;;;6.01;100.00;100004.28;6188004;28;20238;-75
2023/12/13 10:39:43;;;;;;;3.83;2.83;;;;;;;6.00;100.00;99999.06;6187067;28;20260;-73
2023/12/13 10:43:08;;;;;;;2.63;2.43;;;;;;;6.08;100.00;99992.09;6188481;28;20807;-75
2023/12/13 10:46:35;;;;;;;3.90;3.40;;;;;;;6.08;100.00;99997.44;6187368;28;20537;-75
2023/12/13 10:49:56;;;;;;;3.27;3.03;;;;;;;6.16;100.00;99988.75;6182566;28;20724;-74
2023/12/13 10:53:19;;;;;;;2.53;2.33;;;;;;;6.18;100.00;99995.69;6189455;28;20230;-75
2023/12/13 10:56:40;;;;;;;4.10;2.93;;;;;;;6.08;100.00;99999.25;6170511;28;20501;-76
2023/12/13 11:00:03;;;;;;;2.83;2.47;;;;;;;6.02;100.00;99997.13;6185458;28;20237;-73
2023/12/13 11:03:35;;;;;;;2.83;2.50;;;;;;;5.98;100.00;99995.66;6414729;23;20665;-74
2023/12/13 11:07:02;;;;;;;2.10;1.90;;;;;;;6.05;100.00;100002.22;6457918;23;20823;-78
2023/12/13 11:10:23;;;;;;;2.53;2.40;;;;;;;6.14;100.00;100001.41;6204658;28;20232;-77
2023/12/13 11:13:48;;;;;;;2.43;2.33;;;;;;;6.18;100.00;100006.38;6200078;28;20225;-76
2023/12/13 11:17:09;;;;;;;3.03;2.83;;;;;;;6.16;100.00;100012.84;6190818;28;20545;-74
2023/12/13 11:20:33;;;;;;;2.73;2.53;;;;;;;6.16;100.00;100008.34;6200776;28;20254;-77
2023/12/13 11:23:56;;;;;;;2.97;2.43;;;;;;;6.11;100.00;100015.91;6191548;28;20249;-72
2023/12/13 11:27:20;;;;;;;4.73;2.43;;;;;;;5.95;100.00;100018.16;6194793;28;20636;-75
2023/12/13 11:30:42;;;;;;;3.90;2.77;;;;;;;5.92;100.00;100015.78;6197922;28;20253;-73
2023/12/13 11:34:06;;;;;;;2.93;2.63;;;;;;;5.95;100.00;100018.16;6188351;28;20241;-76
2023/12/13 11:37:29;;;;;;;2.30;1.90;;;;;;;6.02;100.00;100019.38;6189787;28;20245;-73
2023/12/13 11:40:50;;;;;;;3.13;2.87;;;;;;;6.05;100.00;100020.94;6190043;28;20237;-77
2023/12/13 11:44:12;;;;;;;1.97;1.80;;;;;;;6.17;100.00;100023.44;6193701;28;20610;-76
2023/12/13 11:47:33;;;;;;;2.37;2.17;;;;;;;6.15;100.00;100021.88;6197492;28;20657;-77
2023/12/13 11:50:55;;;;;;;2.77;2.57;;;;;;;6.20;100.00;100027.66;6201019;28;20241;-73
2023/12/13 11:54:18;;;;;;;3.93;2.83;;;;;;;6.26;100.00;100033.34;6199932;28;20233;-73
2023/12/13 11:57:39;;;;;;;2.70;2.10;;;;;;;6.34;100.00;100025.50;6196905;28;20236;-76
2023/12/13 12:01:00;;;;;;;2.23;2.03;;;;;;;6.37;100.00;100025.25;6194273;28;20237;-76
2023/12/13 12:04:23;;;;;;;1.70;1.60;;;;;;;6.31;100.00;100028.47;6197681;28;20316;-72
2023/12/13 12:07:44;;;;;;;2.37;2.17;;;;;;;6.25;100.00;100031.66;6201533;28;20233;-71
2023/12/13 12:11:07;;;;;;;2.63;2.43;;;;;;;6.25;100.00;100031.66;6197219;28;20244;-72
2023/12/13 12:14:29;;;;;;;2.63;1.80;;;;;;;6.18;100.00;100034.97;6193685;28;20385;-73
2023/12/13 12:17:50;;;;;;;2.60;2.40;;;;;;;5.88;100.00;100043.75;6191297;28;20236;-76
2023/12/13 12:21:12;;;;;;;2.20;2.00;;;;;;;6.04;100.00;100038.81;6196081;28;21803;-73
2023/12/13 12:24:35;;;;;;;1.80;1.70;;;;;;;6.16;100.00;100044.94;6195662;28;20229;-74
2023/12/13 12:27:57;;;;;;;2.40;2.20;;;;;;;6.24;100.00;100047.81;6192196;28;20260;-78
2023/12/13 12:31:19;;;;;;;1.93;1.83;;;;;;;6.25;100.00;100045.03;6193334;28;20524;-73
2023/12/13 12:34:41;;;;;;;3.87;2.30;;;;;;;6.22;100.00;100047.97;6196168;28;20618;-74
2023/12/13 12:38:01;;;;;;;2.23;2.03;;;;;;;6.27;100.00;100050.25;6175290;28;20245;-77
2023/12/13 12:41:27;;;;;;;6.30;4.03;;;;;;;6.27;100.00;100048.44;6177878;28;20595;-75
2023/12/13 12:44:49;;;;;;;2.37;2.10;;;;;;;6.08;100.00;100056.31;6201431;28;20248;-77
2023/12/13 12:48:11;;;;;;;3.37;2.40;;;;;;;5.91;100.00;100056.00;6202058;28;20238;-75
2023/12/13 12:51:33;;;;;;;4.13;2.50;;;;;;;6.03;100.00;100053.16;6201899;28;20331;-77
2023/12/13 12:54:54;;;;;;;1.83;1.73;;;;;;;6.13;100.00;100050.56;6199886;28;20517;-77
2023/12/13 12:58:15;;;;;;;2.47;1.70;;;;;;;6.10;100.00;100059.69;6183798;28;20234;-74
2023/12/13 13:01:37;;;;;;;1.90;1.80;;;;;;;6.17;100.00;100060.91;6201518;28;20229;-76
2023/12/13 13:04:58;;;;;;;5.00;3.17;;;;;;;6.24;100.00;100063.88;6201808;28;20245;-74
2023/12/13 13:08:19;;;;;;;2.30;1.40;;;;;;;6.34;100.00;100064.84;6201025;28;20237;-74
2023/12/13 13:11:42;;;;;;;2.40;2.20;;;;;;;6.29;100.00;100070.56;6193859;28;20233;-78
2023/12/13 13:15:04;;;;;;;1.77;1.50;;;;;;;6.04;100.00;100081.63;6182151;28;20229;-73
2023/12/13 13:18:26;;;;;;;1.77;1.67;;;;;;;6.05;100.00;100082.47;6189249;28;20237;-73
2023/12/13 13:21:47;;;;;;;1.43;1.33;;;;;;;6.01;100.00;100076.50;6188627;28;20907;-74
2023/12/13 13:25:09;;;;;;;2.87;2.03;;;;;;;5.85;100.00;100080.56;6197141;28;20626;-83
2023/12/13 13:28:31;;;;;;;2.30;1.90;;;;;;;6.01;100.00;100084.53;6192502;28;20632;-74
2023/12/13 13:31:52;;;;;;;2.17;1.73;;;;;;;5.97;100.00;100087.59;6194105;28;20241;-76
2023/12/13 13:35:15;;;;;;;2.47;1.83;;;;;;;6.06;100.00;100092.19;6194705;28;20237;-75
2023/12/13 13:38:35;;;;;;;1.97;1.87;;;;;;;6.17;100.00;100084.97;6198338;28;20266;-74
2023/12/13 13:41:57;;;;;;;2.40;2.20;;;;;;;6.12;100.00;100084.50;6196894;28;20241;-73
2023/12/13 13:45:18;;;;;;;1.67;1.57;;;;;;;5.82;100.00;100096.84;6200809;28;20245;-74
2023/12/13 13:48:39;;;;;;;2.53;2.00;;;;;;;5.71;100.00;100100.41;6197595;28;20359;-74
2023/12/13 13:52:01;;;;;;;2.57;2.40;;;;;;;5.88;100.00;100104.41;6186327;28;20324;-74
2023/12/13 13:55:22;;;;;;;2.53;2.33;;;;;;;5.94;100.00;100096.72;6198839;28;20233;-75
2023/12/13 13:58:44;;;;;;;2.17;1.40;;;;;;;6.04;100.00;100107.50;6175268;28;20229;-76
2023/12/13 14:02:06;;;;;;;2.77;2.57;;;;;;;6.03;100.00;100108.50;6200731;28;20237;-73
2023/12/13 14:05:34;;;;;;;2.53;2.33;;;;;;;5.92;100.00;100106.72;6200175;28;20237;-73
2023/12/13 14:08:56;;;;;;;2.27;2.17;;;;;;;5.87;100.00;100113.38;6195947;28;20233;-78
2023/12/13 14:12:18;;;;;;;2.53;2.20;;;;;;;5.91;100.00;100114.84;6198104;28;20236;-76
2023/12/13 14:15:39;;;;;;;1.47;1.40;;;;;;;5.92;100.00;100129.94;6187389;28;20237;-74
2023/12/13 14:19:01;;;;;;;2.87;2.07;;;;;;;5.81;100.00;100132.56;6198711;28;20542;-76
2023/12/13 14:22:21;;;;;;;2.87;2.53;;;;;;;5.92;100.00;100129.94;6199919;28;20233;-78
2023/12/13 14:25:44;;;;;;;1.73;1.60;;;;;;;5.91;100.00;100144.25;6204338;28;20241;-76
2023/12/13 14:29:05;;;;;;;2.27;2.07;;;;;;;5.85;100.00;100140.25;6202628;28;20248;-73
2023/12/13 14:32:25;;;;;;;2.13;2.03;;;;;;;5.97;100.00;100146.44;6202338;28;20236;-73
2023/12/13 14:35:47;;;;;;;1.40;1.30;;;;;;;5.78;100.00;100154.25;6198034;28;20237;-73
2023/12/13 14:39:08;;;;;;;6.73;2.37;;;;;;;5.82;100.00;100155.69;6201960;28;20229;-75
2023/12/13 14:42:30;;;;;;;1.23;1.13;;;;;;;5.92;100.00;100157.53;6203275;28;20237;-73
2023/12/13 14:45:51;;;;;;;2.90;1.90;;;;;;;5.85;100.00;100164.34;6204228;28;20240;-77
2023/12/13 14:49:12;;;;;;;1.40;1.30;;;;;;;5.67;100.00;100168.47;6199595;28;20245;-75
2023/12/13 14:52:33;;;;;;;1.90;1.80;;;;;;;5.74;100.00;100175.00;6200124;28;20316;-74
2023/12/13 14:55:54;;;;;;;3.70;1.73;;;;;;;5.71;100.00;100177.94;6199057;28;20638;-76
2023/12/13 14:59:16;;;;;;;3.43;2.40;;;;;;;5.70;100.00;100181.56;6198226;28;20245;-70
2023/12/13 15:02:39;;;;;;;2.10;1.33;;;;;;;5.80;100.00;100187.88;6197108;28;20232;-74
2023/12/13 15:06:01;;;;;;;2.10;1.70;;;;;;;5.87;100.00;100197.16;6200689;28;20651;-73
2023/12/13 15:09:22;;;;;;;2.10;1.90;;;;;;;5.93;100.00;100185.09;6201991;28;20217;-74
2023/12/13 15:12:43;;;;;;;1.50;1.40;;;;;;;5.89;100.00;100192.53;6196927;28;20518;-74
2023/12/13 15:16:07;;;;;;;1.53;1.43;;;;;;;5.92;100.00;100192.31;6203924;28;20241;-75
2023/12/13 15:19:29;;;;;;;1.80;1.70;;;;;;;5.84;100.00;100197.38;6203996;28;20320;-73
2023/12/13 15:22:50;;;;;;;3.63;2.83;;;;;;;5.81;100.00;100213.66;6183043;28;20354;-74
2023/12/13 15:26:11;;;;;;;1.80;1.53;;;;;;;5.68;100.00;100207.56;6190640;28;20295;-75
2023/12/13 15:29:32;;;;;;;1.90;1.80;;;;;;;5.59;100.00;100216.34;6199747;28;20801;-73
2023/12/13 15:32:54;;;;;;;2.20;2.03;;;;;;;5.54;100.00;100213.19;6172246;28;20238;-73
2023/12/13 15:36:15;;;;;;;2.53;2.33;;;;;;;5.61;100.00;100225.94;6201927;28;20269;-71
2023/12/13 15:39:36;;;;;;;2.43;2.23;;;;;;;5.58;100.00;100228.00;6200576;28;20591;-73
2023/12/13 15:42:57;;;;;;;1.87;1.67;;;;;;;5.64;100.00;100231.03;6200640;28;20241;-73
2023/12/13 15:46:19;;;;;;;1.50;1.40;;;;;;;5.53;100.00;100232.84;6191889;28;20264;-71